»·PEaware :: FFT717 KDEN-KMSO

FFT717 :: KDEN-KMSO

FLIGHT INFORMATION

Flight Status: Arrived
Operator:
Frontier Airlines
More flights by this operator :: More flights under this callsign
Pilot: Ty S. (2873)
Aircraft: AIRBUS A320
(A320)
More flights by this aircraft type
Origin: KDEN Denver Intl
United States
Destination: KMSO Missoula Intl
United States
More flights between these airports :: More routes between these airports
Route: RIKKK3 FISAR MSO
File this flight plan on PilotEdge
Remarks: PBN / A1B1C1D1O1S1 DOF / 180513 REG / N320SB EET / KZLC0030 OPR / FFT PER / C TALT / KCOS RMK / TCAS SIMBRIEF
Altitude:
(Current/Filed)
38,000ft
Speed:
(Current/Filed)
444kts
Departed: 13-May-18 07:43 AM
Arrived: 13-May-18 09:15 AM
Distance/Time
Traveled:
589nm/1:32
Distance/Time
To Go:
Arrived

Flight Plot

Page will automatically refresh every two minutes.

Flight plan parsing failed; only flown route is shown


Map Options




Map Legend


Flown Route
Filed Route
Departure Airport
Arrival Airport
Navaid (VOR, NDB)
Fix

Horizontal Profiles

Position Reports

Time Latitude Longitude Heading Altitude Ground
Speed
13-May-18 07:15 39.853298 -104.670980 10 5440ft 0kts
13-May-18 07:16 39.853298 -104.670980 10 5440ft 0kts
13-May-18 07:17 39.853298 -104.670980 10 5440ft 0kts
13-May-18 07:18 39.853298 -104.670980 10 5440ft 0kts
13-May-18 07:19 39.853298 -104.670980 10 5440ft 0kts
13-May-18 07:20 39.853298 -104.670980 10 5440ft 0kts
13-May-18 07:21 39.853298 -104.670980 10 5440ft 0kts
13-May-18 07:22 39.853298 -104.670980 10 5440ft 0kts
13-May-18 07:23 39.853298 -104.670980 10 5440ft 0kts
13-May-18 07:24 39.853298 -104.670980 10 5440ft 0kts
13-May-18 07:25 39.853298 -104.670980 10 5440ft 0kts
13-May-18 07:26 39.853298 -104.670980 10 5440ft 0kts
13-May-18 07:27 39.853298 -104.670980 10 5440ft 0kts
13-May-18 07:28 39.853298 -104.670980 10 5440ft 0kts
13-May-18 07:29 39.853298 -104.670980 10 5440ft 0kts
13-May-18 07:30 39.853298 -104.670980 10 5440ft 0kts
13-May-18 07:31 39.853297 -104.670980 10 5440ft 0kts
13-May-18 07:32 39.852847 -104.671098 38 5440ft 2kts
13-May-18 07:33 39.852762 -104.671342 95 5440ft 0kts
13-May-18 07:34 39.852762 -104.671342 95 5440ft 0kts
13-May-18 07:35 39.852761 -104.671315 93 5440ft 0kts
13-May-18 07:36 39.852773 -104.669131 90 5440ft 7kts
13-May-18 07:37 39.852778 -104.666442 89 5440ft 9kts
13-May-18 07:38 39.852930 -104.662734 72 5440ft 9kts
13-May-18 07:39 39.855693 -104.662339 0 5440ft 10kts
13-May-18 07:40 39.858732 -104.662291 0 5440ft 12kts
13-May-18 07:41 39.860973 -104.661660 84 5440ft 0kts
13-May-18 07:42 39.860223 -104.660179 178 5440ft 22kts
13-May-18 07:43 39.822450 -104.660292 180 6299ft 191kts
13-May-18 07:44 39.783736 -104.614505 126 8494ft 233kts
13-May-18 07:45 39.779874 -104.522830 71 9992ft 301kts
13-May-18 07:46 39.807289 -104.420883 51 10050ft 303kts
13-May-18 07:47 39.885323 -104.388260 1 11086ft 333kts
13-May-18 07:48 39.980600 -104.381383 359 13703ft 354kts
13-May-18 07:49 40.076715 -104.398298 321 16160ft 359kts
13-May-18 07:50 40.156431 -104.474563 320 18397ft 370kts
13-May-18 07:51 40.240906 -104.554194 321 20415ft 383kts
13-May-18 07:52 40.332604 -104.628586 336 22222ft 401kts
13-May-18 07:53 40.438210 -104.679977 336 23779ft 412kts
13-May-18 07:54 40.546606 -104.733048 336 25289ft 423kts
13-May-18 07:55 40.658020 -104.787783 336 26678ft 434kts
13-May-18 07:56 40.772040 -104.844002 336 27956ft 445kts
13-May-18 07:57 40.889286 -104.901400 336 29107ft 455kts
13-May-18 07:58 41.007901 -104.959645 335 30038ft 468kts
13-May-18 07:59 41.127490 -105.018601 334 30931ft 478kts
13-May-18 08:00 41.252391 -105.080435 334 31773ft 486kts
13-May-18 08:01 41.379616 -105.143671 334 32458ft 496kts
13-May-18 08:02 41.508742 -105.208116 334 33169ft 502kts
13-May-18 08:03 41.617858 -105.311342 306 33940ft 479kts
13-May-18 08:04 41.708312 -105.441261 306 34844ft 477kts
13-May-18 08:05 41.798559 -105.571120 306 35689ft 476kts
13-May-18 08:06 41.888282 -105.700800 305 36173ft 481kts
13-May-18 08:07 41.978995 -105.832434 305 36987ft 476kts
13-May-18 08:08 42.060618 -105.951481 305 37522ft 476kts
13-May-18 08:09 42.148837 -106.080618 305 37900ft 479kts
13-May-18 08:10 42.225722 -106.193652 305 38209ft 479kts
13-May-18 08:11 42.315288 -106.325884 305 38192ft 480kts
13-May-18 08:12 42.405133 -106.459135 305 38194ft 482kts
13-May-18 08:13 42.495254 -106.593407 305 38203ft 484kts
13-May-18 08:14 42.585426 -106.728377 304 38216ft 485kts
13-May-18 08:15 42.675399 -106.863680 304 38211ft 485kts
13-May-18 08:16 42.750276 -106.976765 303 38194ft 485kts
13-May-18 08:17 42.840072 -107.112968 302 38182ft 485kts
13-May-18 08:18 42.929521 -107.249283 302 38171ft 486kts
13-May-18 08:19 43.034911 -107.410735 301 38142ft 493kts
13-May-18 08:20 43.126271 -107.551402 302 38168ft 500kts
13-May-18 08:21 43.217978 -107.693298 301 38229ft 502kts
13-May-18 08:22 43.294689 -107.812536 301 38262ft 502kts
13-May-18 08:23 43.386456 -107.955825 301 38256ft 502kts
13-May-18 08:24 43.478030 -108.099532 301 38224ft 501kts
13-May-18 08:25 43.569109 -108.243177 301 38209ft 501kts
13-May-18 08:26 43.660120 -108.387441 301 38192ft 500kts
13-May-18 08:27 43.750856 -108.531990 301 38192ft 499kts
13-May-18 08:28 43.839703 -108.674236 300 38186ft 499kts
13-May-18 08:29 43.929910 -108.819390 300 38191ft 499kts
13-May-18 08:30 44.019885 -108.964959 300 38188ft 500kts
13-May-18 08:31 44.109187 -109.110096 306 38155ft 502kts
13-May-18 08:32 44.198599 -109.256166 308 38237ft 496kts
13-May-18 08:33 44.287342 -109.401905 308 38210ft 490kts
13-May-18 08:34 44.374908 -109.546422 308 38157ft 487kts
13-May-18 08:35 44.460825 -109.688944 308 38148ft 487kts
13-May-18 08:36 44.547365 -109.833224 308 38216ft 487kts
13-May-18 08:37 44.634001 -109.978402 308 38271ft 487kts
13-May-18 08:38 44.720413 -110.123946 308 38281ft 487kts
13-May-18 08:39 44.806694 -110.270020 308 38284ft 487kts
13-May-18 08:40 44.892931 -110.416772 308 38280ft 486kts
13-May-18 08:41 44.978924 -110.563871 308 38231ft 487kts
13-May-18 08:42 45.057853 -110.699552 309 38189ft 490kts
13-May-18 08:43 45.140359 -110.842201 310 38226ft 491kts
13-May-18 08:44 45.226209 -110.991588 313 38229ft 492kts
13-May-18 08:45 45.311792 -111.140636 315 38267ft 487kts
13-May-18 08:46 45.396167 -111.288713 315 38279ft 479kts
13-May-18 08:47 45.479492 -111.435683 316 38211ft 476kts
13-May-18 08:48 45.562016 -111.582013 316 38194ft 475kts
13-May-18 08:49 45.642105 -111.724763 315 38196ft 475kts
13-May-18 08:50 45.724505 -111.872377 315 37286ft 480kts
13-May-18 08:51 45.807827 -112.022511 315 34752ft 479kts
13-May-18 08:52 45.888438 -112.168627 315 33124ft 459kts
13-May-18 08:53 45.965941 -112.309663 314 31265ft 445kts
13-May-18 08:54 46.041171 -112.447258 314 29401ft 433kts
13-May-18 08:55 46.110862 -112.575342 314 27679ft 420kts
13-May-18 08:56 46.179762 -112.702537 312 25915ft 409kts
13-May-18 08:57 46.247865 -112.828879 312 24398ft 389kts
13-May-18 08:58 46.312459 -112.949232 313 23304ft 375kts
13-May-18 08:59 46.375334 -113.066824 314 21618ft 365kts
13-May-18 09:00 46.436510 -113.181748 313 19963ft 356kts
13-May-18 09:01 46.495909 -113.293788 313 18352ft 347kts
13-May-18 09:02 46.553773 -113.403541 309 16778ft 340kts
13-May-18 09:03 46.580339 -113.535883 285 15243ft 339kts
13-May-18 09:04 46.601553 -113.669960 284 13100ft 349kts
13-May-18 09:05 46.621099 -113.794023 284 11570ft 323kts
13-May-18 09:06 46.620026 -113.911706 263 10597ft 268kts
13-May-18 09:07 46.620649 -114.007458 291 9665ft 218kts
13-May-18 09:08 46.659703 -114.071343 335 7816ft 202kts
13-May-18 09:09 46.708992 -114.083019 12 7038ft 168kts
13-May-18 09:10 46.754976 -114.073832 11 6622ft 167kts
13-May-18 09:11 46.796451 -114.054071 37 5947ft 152kts
13-May-18 09:12 46.831414 -114.020011 36 5143ft 152kts
13-May-18 09:13 46.872005 -114.019378 324 4313ft 154kts
13-May-18 09:14 46.900613 -114.065271 309 3469ft 152kts
13-May-18 09:15 46.920328 -114.098825 311 3214ft 29kts
13-May-18 09:16 46.921599 -114.098495 41 3214ft 0kts
13-May-18 09:17 46.919299 -114.093429 130 3214ft 24kts
13-May-18 09:18 46.919331 -114.088143 96 3214ft 14kts
13-May-18 09:19 46.918909 -114.085098 109 3214ft 0kts
13-May-18 09:20 46.918909 -114.085099 109 3214ft 0kts
13-May-18 09:21 46.918909 -114.085099 109 3214ft 0kts
13-May-18 09:22 46.918909 -114.085099 109 3214ft 0kts
13-May-18 09:23 46.918909 -114.085099 109 3214ft 0kts

Navigation Log

Ident Type
Flight plan parsing failed, navigation log unavailable